sensor_id;sensor_type;location;lat;lon;timestamp;pressure;altitude;pressure_sealevel;temperature;humidity
73422;BME280;61637;47.760;-122.022;2024-01-16T00:00:00;102912.3921;;;-0.4;64.0
73422;BME280;61637;47.760;-122.022;2024-01-16T00:02:00;102912.3921;;;-0.4;65.0
73422;BME280;61637;47.760;-122.022;2024-01-16T00:04:00;102878.52819999999;;;-0.5;65.0
73422;BME280;61637;47.760;-122.022;2024-01-16T00:06:00;102912.3921;;;-0.6;66.0
73422;BME280;61637;47.760;-122.022;2024-01-16T00:08:00;102878.52819999999;;;-0.6;64.0
73422;BME280;61637;47.760;-122.022;2024-01-16T00:10:01;102878.52819999999;;;-0.6;65.0
73422;BME280;61637;47.760;-122.022;2024-01-16T00:12:01;102878.52819999999;;;-0.7;66.0
73422;BME280;61637;47.760;-122.022;2024-01-16T00:14:00;102878.52819999999;;;-0.7;60.0
73422;BME280;61637;47.760;-122.022;2024-01-16T00:16:01;102878.52819999999;;;-0.8;60.0
73422;BME280;61637;47.760;-122.022;2024-01-16T00:18:00;102878.52819999999;;;-0.8;64.0
73422;BME280;61637;47.760;-122.022;2024-01-16T00:20:00;102878.52819999999;;;-0.8;65.0
73422;BME280;61637;47.760;-122.022;2024-01-16T00:22:01;102878.52819999999;;;-0.8;66.0
73422;BME280;61637;47.760;-122.022;2024-01-16T00:24:00;102878.52819999999;;;-0.8;65.0
73422;BME280;61637;47.760;-122.022;2024-01-16T00:26:00;102878.52819999999;;;-0.9;61.0
73422;BME280;61637;47.760;-122.022;2024-01-16T00:28:01;102878.52819999999;;;-0.9;61.0
73422;BME280;61637;47.760;-122.022;2024-01-16T00:30:00;102878.52819999999;;;-0.9;64.0
73422;BME280;61637;47.760;-122.022;2024-01-16T00:32:00;102878.52819999999;;;-1.0;61.0
73422;BME280;61637;47.760;-122.022;2024-01-16T00:34:00;102878.52819999999;;;-1.1;60.0
73422;BME280;61637;47.760;-122.022;2024-01-16T00:36:00;102844.6643;;;-1.1;59.0
73422;BME280;61637;47.760;-122.022;2024-01-16T00:38:00;102844.6643;;;-1.1;60.0
73422;BME280;61637;47.760;-122.022;2024-01-16T00:40:00;102844.6643;;;-1.1;62.0
73422;BME280;61637;47.760;-122.022;2024-01-16T00:42:01;102844.6643;;;-1.1;61.0
73422;BME280;61637;47.760;-122.022;2024-01-16T00:44:00;102844.6643;;;-1.2;61.0
73422;BME280;61637;47.760;-122.022;2024-01-16T00:46:00;102844.6643;;;-1.2;60.0
73422;BME280;61637;47.760;-122.022;2024-01-16T00:48:00;102844.6643;;;-1.2;59.0
73422;BME280;61637;47.760;-122.022;2024-01-16T00:50:00;102844.6643;;;-1.2;60.0
73422;BME280;61637;47.760;-122.022;2024-01-16T00:52:00;102844.6643;;;-1.2;60.0
73422;BME280;61637;47.760;-122.022;2024-01-16T00:54:00;102844.6643;;;-1.3;58.0
73422;BME280;61637;47.760;-122.022;2024-01-16T00:56:00;102810.8004;;;-1.3;62.0
73422;BME280;61637;47.760;-122.022;2024-01-16T00:58:00;102810.8004;;;-1.3;63.0
73422;BME280;61637;47.760;-122.022;2024-01-16T01:00:00;102810.8004;;;-1.3;62.0
73422;BME280;61637;47.760;-122.022;2024-01-16T01:02:00;102810.8004;;;-1.3;61.0
73422;BME280;61637;47.760;-122.022;2024-01-16T01:04:00;102810.8004;;;-1.3;63.0
73422;BME280;61637;47.760;-122.022;2024-01-16T01:06:00;102810.8004;;;-1.4;60.0
73422;BME280;61637;47.760;-122.022;2024-01-16T01:08:00;102810.8004;;;-1.4;59.0
73422;BME280;61637;47.760;-122.022;2024-01-16T01:10:01;102810.8004;;;-1.4;62.0
73422;BME280;61637;47.760;-122.022;2024-01-16T01:12:00;102810.8004;;;-1.5;68.0
73422;BME280;61637;47.760;-122.022;2024-01-16T01:14:00;102810.8004;;;-1.6;65.0
73422;BME280;61637;47.760;-122.022;2024-01-16T01:16:00;102810.8004;;;-1.6;67.0
73422;BME280;61637;47.760;-122.022;2024-01-16T01:18:00;102810.8004;;;-1.7;69.0
73422;BME280;61637;47.760;-122.022;2024-01-16T01:20:00;102810.8004;;;-1.7;70.0
73422;BME280;61637;47.760;-122.022;2024-01-16T01:22:00;102810.8004;;;-1.8;68.0
73422;BME280;61637;47.760;-122.022;2024-01-16T01:24:00;102810.8004;;;-1.8;66.0
73422;BME280;61637;47.760;-122.022;2024-01-16T01:26:00;102776.9365;;;-1.8;70.0
73422;BME280;61637;47.760;-122.022;2024-01-16T01:28:00;102810.8004;;;-1.9;67.0
73422;BME280;61637;47.760;-122.022;2024-01-16T01:30:00;102810.8004;;;-1.9;70.0
73422;BME280;61637;47.760;-122.022;2024-01-16T01:32:00;102776.9365;;;-1.9;71.0
73422;BME280;61637;47.760;-122.022;2024-01-16T01:34:00;102810.8004;;;-2.0;72.0
73422;BME280;61637;47.760;-122.022;2024-01-16T01:36:00;102776.9365;;;-2.1;73.0
73422;BME280;61637;47.760;-122.022;2024-01-16T01:38:00;102776.9365;;;-2.1;74.0
73422;BME280;61637;47.760;-122.022;2024-01-16T01:40:00;102776.9365;;;-2.1;73.0
73422;BME280;61637;47.760;-122.022;2024-01-16T01:42:00;102776.9365;;;-2.2;68.0
73422;BME280;61637;47.760;-122.022;2024-01-16T01:44:00;102776.9365;;;-2.2;69.0
73422;BME280;61637;47.760;-122.022;2024-01-16T01:46:08;102776.9365;;;-2.3;66.0
73422;BME280;61637;47.760;-122.022;2024-01-16T01:48:00;102776.9365;;;-2.3;66.0
73422;BME280;61637;47.760;-122.022;2024-01-16T01:50:01;102743.0726;;;-2.2;63.0
73422;BME280;61637;47.760;-122.022;2024-01-16T01:52:00;102776.9365;;;-2.3;67.0
73422;BME280;61637;47.760;-122.022;2024-01-16T01:54:00;102776.9365;;;-2.3;70.0
73422;BME280;61637;47.760;-122.022;2024-01-16T01:56:01;102743.0726;;;-2.3;69.0
73422;BME280;61637;47.760;-122.022;2024-01-16T01:58:01;102743.0726;;;-2.3;71.0
73422;BME280;61637;47.760;-122.022;2024-01-16T02:00:00;102743.0726;;;-2.3;70.0
73422;BME280;61637;47.760;-122.022;2024-01-16T02:02:00;102743.0726;;;-2.4;68.0
73422;BME280;61637;47.760;-122.022;2024-01-16T02:04:00;102743.0726;;;-2.4;69.0
73422;BME280;61637;47.760;-122.022;2024-01-16T02:06:00;102743.0726;;;-2.4;68.0
73422;BME280;61637;47.760;-122.022;2024-01-16T02:08:00;102709.20869999999;;;-2.4;67.0
73422;BME280;61637;47.760;-122.022;2024-01-16T02:10:01;102709.20869999999;;;-2.4;69.0
73422;BME280;61637;47.760;-122.022;2024-01-16T02:12:00;102709.20869999999;;;-2.5;71.0
73422;BME280;61637;47.760;-122.022;2024-01-16T02:14:00;102709.20869999999;;;-2.5;69.0
73422;BME280;61637;47.760;-122.022;2024-01-16T02:16:00;102709.20869999999;;;-2.6;69.0
73422;BME280;61637;47.760;-122.022;2024-01-16T02:18:00;102709.20869999999;;;-2.6;68.0
73422;BME280;61637;47.760;-122.022;2024-01-16T02:20:00;102709.20869999999;;;-2.6;68.0
73422;BME280;61637;47.760;-122.022;2024-01-16T02:22:00;102743.0726;;;-2.6;71.0
73422;BME280;61637;47.760;-122.022;2024-01-16T02:24:00;102743.0726;;;-2.6;69.0
73422;BME280;61637;47.760;-122.022;2024-01-16T02:26:01;102709.20869999999;;;-2.6;70.0
73422;BME280;61637;47.760;-122.022;2024-01-16T02:28:00;102709.20869999999;;;-2.6;73.0
73422;BME280;61637;47.760;-122.022;2024-01-16T02:30:00;102709.20869999999;;;-2.6;73.0
73422;BME280;61637;47.760;-122.022;2024-01-16T02:32:00;102743.0726;;;-2.7;66.0
73422;BME280;61637;47.760;-122.022;2024-01-16T02:34:00;102743.0726;;;-2.6;64.0
73422;BME280;61637;47.760;-122.022;2024-01-16T02:36:00;102743.0726;;;-2.6;65.0
73422;BME280;61637;47.760;-122.022;2024-01-16T02:38:00;102743.0726;;;-2.6;68.0
73422;BME280;61637;47.760;-122.022;2024-01-16T02:40:00;102743.0726;;;-2.6;69.0
73422;BME280;61637;47.760;-122.022;2024-01-16T02:42:00;102743.0726;;;-2.6;70.0
73422;BME280;61637;47.760;-122.022;2024-01-16T02:44:00;102743.0726;;;-2.7;67.0
73422;BME280;61637;47.760;-122.022;2024-01-16T02:46:00;102743.0726;;;-2.7;68.0
73422;BME280;61637;47.760;-122.022;2024-01-16T02:48:00;102743.0726;;;-2.7;72.0
73422;BME280;61637;47.760;-122.022;2024-01-16T02:50:00;102743.0726;;;-2.7;70.0
73422;BME280;61637;47.760;-122.022;2024-01-16T02:52:00;102743.0726;;;-2.8;67.0
73422;BME280;61637;47.760;-122.022;2024-01-16T02:54:01;102743.0726;;;-2.8;69.0
73422;BME280;61637;47.760;-122.022;2024-01-16T02:56:00;102776.9365;;;-2.8;70.0
73422;BME280;61637;47.760;-122.022;2024-01-16T02:58:00;102743.0726;;;-2.8;72.0
73422;BME280;61637;47.760;-122.022;2024-01-16T03:00:00;102776.9365;;;-2.8;68.0
73422;BME280;61637;47.760;-122.022;2024-01-16T03:02:00;102776.9365;;;-2.9;65.0
73422;BME280;61637;47.760;-122.022;2024-01-16T03:04:00;102776.9365;;;-2.9;66.0
73422;BME280;61637;47.760;-122.022;2024-01-16T03:06:01;102776.9365;;;-2.8;67.0
73422;BME280;61637;47.760;-122.022;2024-01-16T03:08:00;102776.9365;;;-2.8;69.0
73422;BME280;61637;47.760;-122.022;2024-01-16T03:10:00;102776.9365;;;-2.8;71.0
73422;BME280;61637;47.760;-122.022;2024-01-16T03:12:00;102776.9365;;;-2.8;70.0
73422;BME280;61637;47.760;-122.022;2024-01-16T03:14:00;102776.9365;;;-2.9;68.0
73422;BME280;61637;47.760;-122.022;2024-01-16T03:16:00;102776.9365;;;-2.9;67.0
73422;BME280;61637;47.760;-122.022;2024-01-16T03:18:00;102776.9365;;;-2.9;70.0
73422;BME280;61637;47.760;-122.022;2024-01-16T03:20:00;102776.9365;;;-2.9;70.0
73422;BME280;61637;47.760;-122.022;2024-01-16T03:22:00;102776.9365;;;-2.9;72.0
73422;BME280;61637;47.760;-122.022;2024-01-16T03:24:00;102776.9365;;;-2.9;71.0
73422;BME280;61637;47.760;-122.022;2024-01-16T03:26:00;102776.9365;;;-2.9;74.0
73422;BME280;61637;47.760;-122.022;2024-01-16T03:28:00;102776.9365;;;-2.9;75.0
73422;BME280;61637;47.760;-122.022;2024-01-16T03:30:01;102743.0726;;;-3.0;71.0
73422;BME280;61637;47.760;-122.022;2024-01-16T03:32:02;102743.0726;;;-3.0;69.0
73422;BME280;61637;47.760;-122.022;2024-01-16T03:34:00;102743.0726;;;-3.0;70.0
73422;BME280;61637;47.760;-122.022;2024-01-16T03:36:00;102743.0726;;;-3.0;75.0
73422;BME280;61637;47.760;-122.022;2024-01-16T03:38:00;102743.0726;;;-3.0;74.0
73422;BME280;61637;47.760;-122.022;2024-01-16T03:40:00;102743.0726;;;-3.1;74.0
73422;BME280;61637;47.760;-122.022;2024-01-16T03:42:00;102743.0726;;;-3.1;72.0
73422;BME280;61637;47.760;-122.022;2024-01-16T03:44:00;102743.0726;;;-3.1;74.0
73422;BME280;61637;47.760;-122.022;2024-01-16T03:46:00;102743.0726;;;-3.1;73.0
73422;BME280;61637;47.760;-122.022;2024-01-16T03:48:01;102743.0726;;;-3.1;75.0
73422;BME280;61637;47.760;-122.022;2024-01-16T03:50:00;102743.0726;;;-3.1;76.0
73422;BME280;61637;47.760;-122.022;2024-01-16T03:52:00;102743.0726;;;-3.2;76.0
73422;BME280;61637;47.760;-122.022;2024-01-16T03:54:00;102743.0726;;;-3.2;72.0
73422;BME280;61637;47.760;-122.022;2024-01-16T03:56:00;102743.0726;;;-3.2;71.0
73422;BME280;61637;47.760;-122.022;2024-01-16T03:58:00;102743.0726;;;-3.2;72.0
73422;BME280;61637;47.760;-122.022;2024-01-16T04:00:00;102743.0726;;;-3.3;76.0
73422;BME280;61637;47.760;-122.022;2024-01-16T04:02:00;102743.0726;;;-3.3;76.0
73422;BME280;61637;47.760;-122.022;2024-01-16T04:04:00;102743.0726;;;-3.3;74.0
73422;BME280;61637;47.760;-122.022;2024-01-16T04:06:00;102743.0726;;;-3.4;73.0
73422;BME280;61637;47.760;-122.022;2024-01-16T04:08:00;102743.0726;;;-3.4;74.0
73422;BME280;61637;47.760;-122.022;2024-01-16T04:10:00;102743.0726;;;-3.4;71.0
73422;BME280;61637;47.760;-122.022;2024-01-16T04:12:00;102743.0726;;;-3.4;73.0
73422;BME280;61637;47.760;-122.022;2024-01-16T04:14:00;102743.0726;;;-3.5;75.0
73422;BME280;61637;47.760;-122.022;2024-01-16T04:16:00;102743.0726;;;-3.5;74.0
73422;BME280;61637;47.760;-122.022;2024-01-16T04:18:00;102743.0726;;;-3.5;74.0
73422;BME280;61637;47.760;-122.022;2024-01-16T04:20:00;102743.0726;;;-3.6;73.0
73422;BME280;61637;47.760;-122.022;2024-01-16T04:22:00;102743.0726;;;-3.6;72.0
73422;BME280;61637;47.760;-122.022;2024-01-16T04:24:00;102743.0726;;;-3.6;72.0
73422;BME280;61637;47.760;-122.022;2024-01-16T04:26:00;102743.0726;;;-3.6;73.0
73422;BME280;61637;47.760;-122.022;2024-01-16T04:28:00;102743.0726;;;-3.6;75.0
73422;BME280;61637;47.760;-122.022;2024-01-16T04:30:01;102743.0726;;;-3.7;74.0
73422;BME280;61637;47.760;-122.022;2024-01-16T04:32:00;102743.0726;;;-3.7;71.0
73422;BME280;61637;47.760;-122.022;2024-01-16T04:34:00;102743.0726;;;-3.7;70.0
73422;BME280;61637;47.760;-122.022;2024-01-16T04:36:00;102743.0726;;;-3.7;70.0
73422;BME280;61637;47.760;-122.022;2024-01-16T04:38:00;102743.0726;;;-3.7;71.0
73422;BME280;61637;47.760;-122.022;2024-01-16T04:40:00;102743.0726;;;-3.7;72.0
73422;BME280;61637;47.760;-122.022;2024-01-16T04:42:00;102743.0726;;;-3.7;73.0
73422;BME280;61637;47.760;-122.022;2024-01-16T04:44:00;102743.0726;;;-3.7;74.0
73422;BME280;61637;47.760;-122.022;2024-01-16T04:46:00;102709.20869999999;;;-3.7;75.0
73422;BME280;61637;47.760;-122.022;2024-01-16T04:48:00;102743.0726;;;-3.7;73.0
73422;BME280;61637;47.760;-122.022;2024-01-16T04:50:00;102709.20869999999;;;-3.7;74.0
73422;BME280;61637;47.760;-122.022;2024-01-16T04:52:00;102743.0726;;;-3.7;74.0
73422;BME280;61637;47.760;-122.022;2024-01-16T04:54:01;102743.0726;;;-3.7;74.0
73422;BME280;61637;47.760;-122.022;2024-01-16T04:56:00;102743.0726;;;-3.7;73.0
73422;BME280;61637;47.760;-122.022;2024-01-16T04:58:00;102709.20869999999;;;-3.7;73.0
73422;BME280;61637;47.760;-122.022;2024-01-16T05:00:00;102709.20869999999;;;-3.7;73.0
73422;BME280;61637;47.760;-122.022;2024-01-16T05:02:00;102709.20869999999;;;-3.7;71.0
73422;BME280;61637;47.760;-122.022;2024-01-16T05:04:00;102709.20869999999;;;-3.7;70.0
73422;BME280;61637;47.760;-122.022;2024-01-16T05:06:00;102709.20869999999;;;-3.7;69.0
73422;BME280;61637;47.760;-122.022;2024-01-16T05:08:00;102709.20869999999;;;-3.7;68.0
73422;BME280;61637;47.760;-122.022;2024-01-16T05:10:00;102675.34479999999;;;-3.6;68.0
73422;BME280;61637;47.760;-122.022;2024-01-16T05:12:00;102709.20869999999;;;-3.6;68.0
73422;BME280;61637;47.760;-122.022;2024-01-16T05:14:00;102675.34479999999;;;-3.6;70.0
73422;BME280;61637;47.760;-122.022;2024-01-16T05:16:00;102675.34479999999;;;-3.5;69.0
73422;BME280;61637;47.760;-122.022;2024-01-16T05:18:00;102675.34479999999;;;-3.5;68.0
73422;BME280;61637;47.760;-122.022;2024-01-16T05:20:01;102675.34479999999;;;-3.5;71.0
73422;BME280;61637;47.760;-122.022;2024-01-16T05:22:00;102675.34479999999;;;-3.5;71.0
73422;BME280;61637;47.760;-122.022;2024-01-16T05:24:00;102709.20869999999;;;-3.5;73.0
73422;BME280;61637;47.760;-122.022;2024-01-16T05:26:00;102675.34479999999;;;-3.5;72.0
73422;BME280;61637;47.760;-122.022;2024-01-16T05:28:00;102675.34479999999;;;-3.6;71.0
73422;BME280;61637;47.760;-122.022;2024-01-16T05:30:00;102675.34479999999;;;-3.6;69.0
73422;BME280;61637;47.760;-122.022;2024-01-16T05:32:00;102675.34479999999;;;-3.6;70.0
73422;BME280;61637;47.760;-122.022;2024-01-16T05:34:00;102675.34479999999;;;-3.6;71.0
73422;BME280;61637;47.760;-122.022;2024-01-16T05:36:00;102675.34479999999;;;-3.7;70.0
73422;BME280;61637;47.760;-122.022;2024-01-16T05:38:00;102675.34479999999;;;-3.7;71.0
73422;BME280;61637;47.760;-122.022;2024-01-16T05:40:01;102675.34479999999;;;-3.7;72.0
73422;BME280;61637;47.760;-122.022;2024-01-16T05:42:00;102675.34479999999;;;-3.7;72.0
73422;BME280;61637;47.760;-122.022;2024-01-16T05:44:00;102675.34479999999;;;-3.7;74.0
73422;BME280;61637;47.760;-122.022;2024-01-16T05:46:00;102675.34479999999;;;-3.7;74.0
73422;BME280;61637;47.760;-122.022;2024-01-16T05:48:00;102675.34479999999;;;-3.7;74.0
73422;BME280;61637;47.760;-122.022;2024-01-16T05:50:00;102641.4809;;;-3.7;75.0
73422;BME280;61637;47.760;-122.022;2024-01-16T05:52:00;102675.34479999999;;;-3.8;75.0
73422;BME280;61637;47.760;-122.022;2024-01-16T05:54:00;102641.4809;;;-3.8;75.0
73422;BME280;61637;47.760;-122.022;2024-01-16T05:56:00;102675.34479999999;;;-3.8;75.0
73422;BME280;61637;47.760;-122.022;2024-01-16T05:58:00;102641.4809;;;-3.8;75.0
73422;BME280;61637;47.760;-122.022;2024-01-16T06:00:01;102641.4809;;;-3.8;76.0
73422;BME280;61637;47.760;-122.022;2024-01-16T06:02:00;102675.34479999999;;;-3.8;74.0
73422;BME280;61637;47.760;-122.022;2024-01-16T06:04:00;102675.34479999999;;;-3.8;75.0
73422;BME280;61637;47.760;-122.022;2024-01-16T06:06:00;102675.34479999999;;;-3.9;75.0
73422;BME280;61637;47.760;-122.022;2024-01-16T06:08:00;102641.4809;;;-3.9;74.0
73422;BME280;61637;47.760;-122.022;2024-01-16T06:10:00;102641.4809;;;-3.9;74.0
73422;BME280;61637;47.760;-122.022;2024-01-16T06:12:00;102641.4809;;;-3.9;74.0
73422;BME280;61637;47.760;-122.022;2024-01-16T06:14:00;102641.4809;;;-3.9;74.0
73422;BME280;61637;47.760;-122.022;2024-01-16T06:16:01;102641.4809;;;-3.9;75.0
73422;BME280;61637;47.760;-122.022;2024-01-16T06:18:00;102641.4809;;;-3.9;75.0
73422;BME280;61637;47.760;-122.022;2024-01-16T06:20:00;102641.4809;;;-3.9;75.0
73422;BME280;61637;47.760;-122.022;2024-01-16T06:22:00;102641.4809;;;-3.9;76.0
73422;BME280;61637;47.760;-122.022;2024-01-16T06:24:00;102641.4809;;;-3.9;76.0
73422;BME280;61637;47.760;-122.022;2024-01-16T06:26:00;102607.617;;;-3.9;76.0
73422;BME280;61637;47.760;-122.022;2024-01-16T06:28:01;102607.617;;;-4.0;76.0
73422;BME280;61637;47.760;-122.022;2024-01-16T06:30:00;102607.617;;;-4.1;76.0
73422;BME280;61637;47.760;-122.022;2024-01-16T06:32:00;102607.617;;;-4.1;76.0
73422;BME280;61637;47.760;-122.022;2024-01-16T06:34:00;102607.617;;;-4.1;76.0
73422;BME280;61637;47.760;-122.022;2024-01-16T06:36:01;102607.617;;;-4.1;77.0
73422;BME280;61637;47.760;-122.022;2024-01-16T06:38:01;102607.617;;;-4.1;77.0
73422;BME280;61637;47.760;-122.022;2024-01-16T06:40:00;102607.617;;;-4.2;76.0
73422;BME280;61637;47.760;-122.022;2024-01-16T06:42:00;102607.617;;;-4.2;76.0
73422;BME280;61637;47.760;-122.022;2024-01-16T06:44:00;102607.617;;;-4.2;76.0
73422;BME280;61637;47.760;-122.022;2024-01-16T06:46:00;102607.617;;;-4.2;76.0
73422;BME280;61637;47.760;-122.022;2024-01-16T06:48:00;102607.617;;;-4.2;76.0
73422;BME280;61637;47.760;-122.022;2024-01-16T06:50:00;102607.617;;;-4.2;75.0
73422;BME280;61637;47.760;-122.022;2024-01-16T06:52:00;102607.617;;;-4.2;76.0
73422;BME280;61637;47.760;-122.022;2024-01-16T06:54:00;102607.617;;;-4.2;75.0
73422;BME280;61637;47.760;-122.022;2024-01-16T06:56:00;102607.617;;;-4.2;75.0
73422;BME280;61637;47.760;-122.022;2024-01-16T06:58:00;102607.617;;;-4.3;74.0
73422;BME280;61637;47.760;-122.022;2024-01-16T07:00:00;102607.617;;;-4.2;73.0
73422;BME280;61637;47.760;-122.022;2024-01-16T07:02:00;102607.617;;;-4.3;73.0
73422;BME280;61637;47.760;-122.022;2024-01-16T07:04:02;102607.617;;;-4.3;73.0
73422;BME280;61637;47.760;-122.022;2024-01-16T07:06:00;102573.75309999999;;;-4.3;73.0
73422;BME280;61637;47.760;-122.022;2024-01-16T07:08:00;102573.75309999999;;;-4.3;72.0
73422;BME280;61637;47.760;-122.022;2024-01-16T07:10:00;102573.75309999999;;;-4.3;72.0
73422;BME280;61637;47.760;-122.022;2024-01-16T07:12:00;102573.75309999999;;;-4.3;73.0
73422;BME280;61637;47.760;-122.022;2024-01-16T07:14:00;102607.617;;;-4.3;72.0
73422;BME280;61637;47.760;-122.022;2024-01-16T07:16:00;102607.617;;;-4.3;71.0
73422;BME280;61637;47.760;-122.022;2024-01-16T07:18:00;102573.75309999999;;;-4.3;70.0
73422;BME280;61637;47.760;-122.022;2024-01-16T07:20:00;102573.75309999999;;;-4.3;71.0
73422;BME280;61637;47.760;-122.022;2024-01-16T07:22:00;102573.75309999999;;;-4.3;70.0
73422;BME280;61637;47.760;-122.022;2024-01-16T07:24:00;102573.75309999999;;;-4.3;71.0
73422;BME280;61637;47.760;-122.022;2024-01-16T07:26:00;102573.75309999999;;;-4.3;71.0
73422;BME280;61637;47.760;-122.022;2024-01-16T07:28:00;102573.75309999999;;;-4.3;72.0
73422;BME280;61637;47.760;-122.022;2024-01-16T07:30:00;102573.75309999999;;;-4.3;72.0
73422;BME280;61637;47.760;-122.022;2024-01-16T07:32:00;102573.75309999999;;;-4.3;73.0
73422;BME280;61637;47.760;-122.022;2024-01-16T07:34:00;102573.75309999999;;;-4.3;73.0
73422;BME280;61637;47.760;-122.022;2024-01-16T07:36:00;102573.75309999999;;;-4.3;73.0
73422;BME280;61637;47.760;-122.022;2024-01-16T07:38:00;102573.75309999999;;;-4.3;73.0
73422;BME280;61637;47.760;-122.022;2024-01-16T07:40:00;102573.75309999999;;;-4.3;74.0
73422;BME280;61637;47.760;-122.022;2024-01-16T07:42:00;102573.75309999999;;;-4.3;74.0
73422;BME280;61637;47.760;-122.022;2024-01-16T07:44:00;102573.75309999999;;;-4.3;75.0
73422;BME280;61637;47.760;-122.022;2024-01-16T07:46:00;102573.75309999999;;;-4.4;74.0
73422;BME280;61637;47.760;-122.022;2024-01-16T07:48:00;102573.75309999999;;;-4.4;74.0
73422;BME280;61637;47.760;-122.022;2024-01-16T07:50:00;102573.75309999999;;;-4.4;74.0
73422;BME280;61637;47.760;-122.022;2024-01-16T07:52:00;102573.75309999999;;;-4.4;74.0
73422;BME280;61637;47.760;-122.022;2024-01-16T07:54:04;102573.75309999999;;;-4.5;74.0
73422;BME280;61637;47.760;-122.022;2024-01-16T07:56:00;102573.75309999999;;;-4.5;74.0
73422;BME280;61637;47.760;-122.022;2024-01-16T07:58:00;102539.8892;;;-4.6;74.0
73422;BME280;61637;47.760;-122.022;2024-01-16T08:00:00;102539.8892;;;-4.6;74.0
73422;BME280;61637;47.760;-122.022;2024-01-16T08:02:00;102539.8892;;;-4.6;76.0
73422;BME280;61637;47.760;-122.022;2024-01-16T08:04:00;102506.0253;;;-4.6;76.0
73422;BME280;61637;47.760;-122.022;2024-01-16T08:06:00;102506.0253;;;-4.6;76.0
73422;BME280;61637;47.760;-122.022;2024-01-16T08:08:00;102506.0253;;;-4.6;75.0
73422;BME280;61637;47.760;-122.022;2024-01-16T08:10:00;102506.0253;;;-4.6;75.0
73422;BME280;61637;47.760;-122.022;2024-01-16T08:12:00;102506.0253;;;-4.7;75.0
73422;BME280;61637;47.760;-122.022;2024-01-16T08:14:00;102506.0253;;;-4.7;75.0
73422;BME280;61637;47.760;-122.022;2024-01-16T08:16:00;102506.0253;;;-4.7;75.0
73422;BME280;61637;47.760;-122.022;2024-01-16T08:18:00;102506.0253;;;-4.7;76.0
73422;BME280;61637;47.760;-122.022;2024-01-16T08:20:00;102506.0253;;;-4.8;77.0
73422;BME280;61637;47.760;-122.022;2024-01-16T08:22:00;102506.0253;;;-4.8;78.0
73422;BME280;61637;47.760;-122.022;2024-01-16T08:24:02;102506.0253;;;-4.8;78.0
73422;BME280;61637;47.760;-122.022;2024-01-16T08:26:00;102506.0253;;;-4.8;78.0
73422;BME280;61637;47.760;-122.022;2024-01-16T08:28:00;102506.0253;;;-4.9;78.0
73422;BME280;61637;47.760;-122.022;2024-01-16T08:30:00;102506.0253;;;-4.9;79.0
73422;BME280;61637;47.760;-122.022;2024-01-16T08:32:00;102506.0253;;;-4.9;78.0
73422;BME280;61637;47.760;-122.022;2024-01-16T08:34:00;102506.0253;;;-4.9;79.0
73422;BME280;61637;47.760;-122.022;2024-01-16T08:36:00;102506.0253;;;-4.9;78.0
73422;BME280;61637;47.760;-122.022;2024-01-16T08:38:00;102506.0253;;;-4.9;78.0
73422;BME280;61637;47.760;-122.022;2024-01-16T08:40:00;102506.0253;;;-5.0;78.0
73422;BME280;61637;47.760;-122.022;2024-01-16T08:42:00;102506.0253;;;-5.0;79.0
73422;BME280;61637;47.760;-122.022;2024-01-16T08:44:00;102506.0253;;;-5.0;79.0
73422;BME280;61637;47.760;-122.022;2024-01-16T08:46:01;102506.0253;;;-5.1;79.0
73422;BME280;61637;47.760;-122.022;2024-01-16T08:48:00;102506.0253;;;-5.1;79.0
73422;BME280;61637;47.760;-122.022;2024-01-16T08:50:00;102506.0253;;;-5.1;79.0
73422;BME280;61637;47.760;-122.022;2024-01-16T08:52:00;102506.0253;;;-5.1;79.0
73422;BME280;61637;47.760;-122.022;2024-01-16T08:54:00;102506.0253;;;-5.1;79.0
73422;BME280;61637;47.760;-122.022;2024-01-16T08:56:00;102506.0253;;;-5.1;79.0
73422;BME280;61637;47.760;-122.022;2024-01-16T08:58:00;102506.0253;;;-5.2;80.0
73422;BME280;61637;47.760;-122.022;2024-01-16T09:00:00;102506.0253;;;-5.2;79.0
73422;BME280;61637;47.760;-122.022;2024-01-16T09:02:00;102506.0253;;;-5.2;79.0
73422;BME280;61637;47.760;-122.022;2024-01-16T09:04:00;102472.1614;;;-5.2;79.0
73422;BME280;61637;47.760;-122.022;2024-01-16T09:06:00;102472.1614;;;-5.2;80.0
73422;BME280;61637;47.760;-122.022;2024-01-16T09:08:00;102472.1614;;;-5.2;79.0
73422;BME280;61637;47.760;-122.022;2024-01-16T09:10:00;102472.1614;;;-5.3;79.0
73422;BME280;61637;47.760;-122.022;2024-01-16T09:12:00;102506.0253;;;-5.3;80.0
73422;BME280;61637;47.760;-122.022;2024-01-16T09:14:00;102472.1614;;;-5.3;80.0
73422;BME280;61637;47.760;-122.022;2024-01-16T09:16:00;102472.1614;;;-5.3;80.0
73422;BME280;61637;47.760;-122.022;2024-01-16T09:18:00;102472.1614;;;-5.3;80.0
73422;BME280;61637;47.760;-122.022;2024-01-16T09:20:01;102472.1614;;;-5.2;80.0
73422;BME280;61637;47.760;-122.022;2024-01-16T09:22:00;102472.1614;;;-5.2;80.0
73422;BME280;61637;47.760;-122.022;2024-01-16T09:24:00;102472.1614;;;-5.3;80.0
73422;BME280;61637;47.760;-122.022;2024-01-16T09:26:00;102472.1614;;;-5.3;80.0
73422;BME280;61637;47.760;-122.022;2024-01-16T09:28:00;102472.1614;;;-5.2;81.0
73422;BME280;61637;47.760;-122.022;2024-01-16T09:30:00;102472.1614;;;-5.2;81.0
73422;BME280;61637;47.760;-122.022;2024-01-16T09:32:00;102472.1614;;;-5.2;81.0
73422;BME280;61637;47.760;-122.022;2024-01-16T09:34:00;102472.1614;;;-5.3;80.0
73422;BME280;61637;47.760;-122.022;2024-01-16T09:36:00;102472.1614;;;-5.2;80.0
73422;BME280;61637;47.760;-122.022;2024-01-16T09:38:00;102472.1614;;;-5.3;81.0
73422;BME280;61637;47.760;-122.022;2024-01-16T09:40:00;102438.2975;;;-5.2;81.0
73422;BME280;61637;47.760;-122.022;2024-01-16T09:42:00;102438.2975;;;-5.3;80.0
73422;BME280;61637;47.760;-122.022;2024-01-16T09:44:01;102438.2975;;;-5.3;80.0
73422;BME280;61637;47.760;-122.022;2024-01-16T09:46:00;102438.2975;;;-5.3;80.0
73422;BME280;61637;47.760;-122.022;2024-01-16T09:48:00;102438.2975;;;-5.3;81.0